Northern & Central Napa County

32 Stations

15 Minute Data | America/Los_Angeles
as of 5/4/26 11:58 PM PDT
Station Date Time Temp (°F) RH (%) Dew Pt (°F) Wind Spd (mph) Wind Dir (°) Wind Gust (mph) Latest Rain (In) Daily Rain (In) Daily Max Temp (°F) Daily Min Temp (°F)
Calistoga-North 5/4/26 2345 52.5   1.5 98   16 52.0   3.2 - - - 0.00 0.44 70.2   13.5 48.3   2.7
Stags Leap Dist (Chimney Rock) 5/4/26 2345 53.0   1.9 98   10 52.5   5.0 0.6   0.1 SSE | 156 1.8   0.1 0.03 0.43 65.2   3.1 42.8   7.5
Diamond Mtn (McEachran) 5/4/26 2345 51.7   1.4 97   17 50.9   3.9 - - - - - 64.6   0.0 47.4   3.8
Diamond Mtn (Schramsberg) 5/4/26 2345 50.7   0.1 100   15 50.7   4.5 - - - 0.02 0.46 64.2   0.8 47.3   2.4
Stags Leap Dist (Silverado Vineyards) 5/4/26 2345 52.1   1.3 94   10 50.5   4.2 0.9   0.4 SSE | 166 2.8   0.5 0.02 0.42 64.9   3.1 43.5   7.1
Oak Knoll-East (Ranch 53) 5/4/26 2345 52.6   2.3 95   6 51.2   4.1 1.5   0.2 SE | 144 3.6   0.9 0.02 0.45 65.5   3.3 43.8   5.3
Rutherford-North (Mee Ln) 5/4/26 2345 49.6   1.6 96   11 48.4   1.8 2.2   1.8 SSE | 166 5.3   2.6 0.02 0.46 68.8   1.0 41.3   9.5
Frisinger Napa-NW 5/4/26 2345 53.3   3.6 95   8 51.9   5.9 0.7   1.4 E | 99 2.3   1.4 0.02 0.39 65.9   2.2 44.8   4.9
Napa-North (Ranch 29) 5/4/26 2345 52.5   1.9 100   12 52.5   5.3 0.1   0.0 WSW | 239 1.5   0.7 0.01 0.44 64.7   1.9 44.4   6.1
St. Helena (NVV Office) 5/4/26 2345 53.9   0.4 - - 0.1   1.0 SSE | 156 1.2   1.7 0.01 0.45 70.1   0.6 46.0   7.4
Crossroads Ranch 5/4/26 2345 53.0   3.2 93   5 51.0   4.7 3.8   3.3 SSE | 158 5.9   3.8 0.01 0.46 66.6   1.3 43.5   6.0
Oakville 5/4/26 2345 52.7   2.1 96   10 51.7   5.0 3.0   1.7 SE | 146 5.2   2.8 0.01 0.34 66.8   1.4 43.5   6.3
OV561-East 5/4/26 2345 53.0   0.5 - - - - - - - 66.3   3.2 44.2   8.2
OV518-West 5/4/26 2345 52.9   1.8 - - - - - - - 66.6   0.9 43.6   7.2
Napa-NW (Ranch 54) 5/4/26 2345 53.2   3.1 100   14 53.2   7.0 0.0   0.2 SE | 125 1.2   0.5 0.03 0.47 69.0   0.8 45.3   4.4
Calistoga (Ranch 78) 5/4/26 2345 52.9   1.1 93   17 51.0   4.3 4.2   0.3 WNW | 301 6.6   0.1 0.01 0.50 68.6   0.8 46.5   6.4
Yountville-SE (Ranch 85) 5/4/26 2345 52.7   1.5 97   10 52.0   4.5 1.9   1.6 SSW | 196 3.2   0.2 0.03 0.42 65.5   4.4 43.8   7.3
Yountville-South (Ranch 87) 5/4/26 2345 52.7   2.1 100   10 52.6   5.0 1.1   0.1 SSW | 194 2.6   0.6 0.02 0.41 65.5   3.8 43.5   6.9
Rutherford Hill Estate 5/4/26 2345 51.8   0.5 100   19 51.8   5.3 0.8   1.0 SSW | 202 2.8   1.1 0.01 0.42 66.8   2.4 46.7   4.6
Rutherford (STS) 5/4/26 2345 52.8   3.4 86   5 48.8   1.8 0.7   0.2 SSE | 164 2.0   0.1 0.01 0.38 68.0   1.8 42.9   6.2
Borreo (Soda Canyon) 5/4/26 1930 51.1   7.8 92   31 48.9   3.3 0.1   2.0 NNE | 17 1.1   4.1 0.01 0.09 61.8   4.4 41.6   6.7
Oakville-NE (Ranch 88) 5/4/26 2345 52.7   3.1 98   12 52.1   6.5 0.0   0.3 N | 0 0.0   2.3 0.02 0.43 68.7   1.7 42.6   6.6
Soda Canyon 5/4/26 2345 52.8   6.8 92   2 50.5   7.3 0.1   0.1 SSE | 165 1.8   0.2 0.02 0.45 63.8   3.9 40.5   5.2
Silver Oak OV 5/4/26 2345 53.0   2.0 96   9 51.7   4.5 3.5   2.3 SSE | 149 6.1   3.9 0.01 0.42 67.0   1.3 42.8   6.7
Tiara Fria (East St. Helena) 5/4/26 2345 53.8   1.1 95   20 52.3   5.4 1.5   1.6 S | 176 3.7   3.1 0.02 0.42 66.9   1.0 45.7   7.6
To Kalon Remote (TKKE) 5/4/26 2345 53.4   2.8 - - - - - - - 68.6   1.2 42.9   6.4
To Kalon 5/4/26 2345 53.2   0.1 97   16 52.3   5.1 1.3   0.4 SSW | 204 2.5   0.5 0.03 0.42 66.8   2.1 43.6   8.1
To Kalon Remote (TKN5) 5/4/26 2345 53.6   0.1 - - - - - - - 67.1   2.1 43.6   9.1
St. Helena-North 5/4/26 2345 53.1   1.3 100   28 53.1   7.7 1.1   1.7 WNW | 288 3.3   4.4 0.02 0.54 67.2   0.7 46.4   6.9
Twomey Calistoga 5/4/26 2345 52.7   0.2 95   12 51.3   3.8 2.7   2.1 WNW | 284 6.1   4.4 0.01 0.54 69.7   3.0 45.3   7.2
Wappo Hill Floor 5/4/26 2345 51.1   0.9 100   18 51.1   4.3 0.8   0.2 S | 184 3.2   1.1 0.03 0.40 66.3   2.9 42.2   9.7
Yountville (Ranch 67) 5/4/26 2345 52.2   1.7 96   12 51.0   5.3 1.2   0.7 S | 172 3.1   0.6 0.03 0.41 65.2   2.8 43.2   7.3
Max     53.9 100 53.2 4.2 - 6.6 0.03 0.54 70.2 48.3
Avg     52.6 96 51.5 1.4 - 3.2 0.02 - - -
Min     49.6 86 48.4 0.0 - 0.0 0.00 0.34 63.8 40.5